Time;durP1;ratioP1;P1;durP2;ratioP2;P2;SDS_P1;SDS_P2;PMS_P1;PMS_P2;Temp;Humidity;BMP_temperature;BMP_pressure;BME280_temperature;BME280_humidity;BME280_pressure;Samples;Min_cycle;Max_cycle;Signal;HPM_P1;HPM_P2
2021/10/25 00:00:15;;;;;;;5.07;2.47;;;8.70;99.90;;;;;;5066877;28;20040;-50
2021/10/25 00:03:19;;;;;;;5.03;2.10;;;8.70;99.90;;;;;;5063695;28;20032;-50
2021/10/25 00:06:24;;;;;;;7.25;2.70;;;8.60;99.90;;;;;;5062026;28;20033;-50
2021/10/25 00:09:29;;;;;;;5.70;2.75;;;8.60;99.90;;;;;;5063595;28;20036;-50
2021/10/25 00:12:33;;;;;;;6.75;2.67;;;8.50;99.90;;;;;;5064544;28;20495;-53
2021/10/25 00:15:38;;;;;;;5.85;3.00;;;8.50;99.90;;;;;;5065645;28;20494;-50
2021/10/25 00:18:42;;;;;;;6.82;2.30;;;8.50;99.90;;;;;;5065101;28;20408;-50
2021/10/25 00:21:47;;;;;;;6.07;2.30;;;8.50;99.90;;;;;;5066648;28;20040;-50
2021/10/25 00:24:52;;;;;;;15.15;5.25;;;8.50;99.90;;;;;;5065977;28;20041;-51
2021/10/25 00:27:56;;;;;;;8.05;2.70;;;8.50;99.90;;;;;;5066309;28;20025;-48
2021/10/25 00:31:00;;;;;;;7.90;2.70;;;8.50;99.90;;;;;;5069195;28;20028;-52
2021/10/25 00:34:04;;;;;;;6.55;3.30;;;8.60;99.90;;;;;;5068197;28;20040;-51
2021/10/25 00:37:08;;;;;;;9.55;3.35;;;8.60;99.90;;;;;;5067718;28;20032;-51
2021/10/25 00:40:12;;;;;;;4.43;2.10;;;8.60;99.90;;;;;;5061670;28;20036;-52
2021/10/25 00:43:16;;;;;;;4.93;3.33;;;8.60;99.90;;;;;;5068495;28;20036;-52
2021/10/25 00:46:21;;;;;;;7.18;3.20;;;8.40;99.90;;;;;;5062584;28;20133;-47
2021/10/25 00:49:25;;;;;;;6.90;3.92;;;8.20;99.90;;;;;;5068402;28;20025;-50
2021/10/25 00:52:30;;;;;;;5.30;4.22;;;8.10;99.90;;;;;;5068489;28;20487;-49
2021/10/25 00:55:35;;;;;;;8.20;4.18;;;8.00;99.90;;;;;;5062801;28;20041;-49
2021/10/25 00:58:39;;;;;;;4.53;2.80;;;8.00;99.90;;;;;;5066728;28;20371;-49
2021/10/25 01:01:46;;;;;;;5.97;3.40;;;8.00;99.90;;;;;;5065038;28;20503;-49
2021/10/25 01:04:50;;;;;;;3.80;2.63;;;8.10;99.90;;;;;;5067603;28;20033;-50
2021/10/25 01:07:56;;;;;;;5.97;3.72;;;8.10;99.90;;;;;;5066471;28;20497;-52
2021/10/25 01:11:01;;;;;;;8.63;3.00;;;8.00;99.90;;;;;;5066808;28;20387;-49
2021/10/25 01:14:04;;;;;;;6.22;2.75;;;7.90;99.90;;;;;;5068310;28;20048;-49
2021/10/25 01:17:09;;;;;;;6.03;2.55;;;8.00;99.90;;;;;;5066920;28;20033;-50
2021/10/25 01:20:17;;;;;;;13.68;5.35;;;8.10;99.90;;;;;;5071686;28;20040;-49
2021/10/25 01:23:22;;;;;;;12.73;4.00;;;8.10;99.90;;;;;;5081896;28;20043;-51
2021/10/25 01:26:26;;;;;;;7.80;2.95;;;8.20;99.90;;;;;;5064243;28;20426;-49
2021/10/25 01:29:30;;;;;;;20.77;6.43;;;8.20;99.90;;;;;;5068692;28;20032;-49
2021/10/25 01:32:34;;;;;;;67.60;17.00;;;8.20;99.90;;;;;;5068845;28;20534;-49
2021/10/25 01:35:39;;;;;;;20.02;6.75;;;8.10;99.90;;;;;;5070107;28;20044;-50
2021/10/25 01:38:44;;;;;;;7.25;3.08;;;8.00;99.90;;;;;;5068079;28;20414;-51
2021/10/25 01:41:51;;;;;;;6.60;2.50;;;8.00;99.90;;;;;;5070855;28;20036;-50
2021/10/25 01:44:55;;;;;;;5.05;2.40;;;8.00;99.90;;;;;;5069911;28;20032;-51
2021/10/25 01:48:00;;;;;;;6.75;2.22;;;8.00;99.90;;;;;;5071235;28;20041;-49
2021/10/25 01:51:05;;;;;;;4.80;2.10;;;7.90;99.90;;;;;;5069517;28;20028;-51
2021/10/25 01:54:11;;;;;;;4.07;1.83;;;8.00;99.90;;;;;;5069828;28;20025;-53
2021/10/25 01:57:15;;;;;;;3.72;1.83;;;8.00;99.90;;;;;;5069806;28;20032;-52
2021/10/25 02:00:19;;;;;;;7.47;3.47;;;8.00;99.90;;;;;;5071082;28;20044;-51
2021/10/25 02:03:25;;;;;;;7.93;3.42;;;7.90;99.90;;;;;;5067701;28;20522;-52
2021/10/25 02:06:35;;;;;;;7.47;2.90;;;7.80;99.90;;;;;;5068734;28;20029;-54
2021/10/25 02:09:42;;;;;;;5.75;2.70;;;7.60;99.90;;;;;;5067593;28;20045;-50
2021/10/25 02:12:46;;;;;;;5.78;2.60;;;7.60;99.90;;;;;;5068656;28;20037;-50
2021/10/25 02:15:53;;;;;;;5.38;2.83;;;7.50;99.90;;;;;;5067525;28;20040;-50
2021/10/25 02:18:59;;;;;;;7.03;3.28;;;7.40;99.90;;;;;;5069331;28;20056;-53
2021/10/25 02:22:23;;;;;;;5.03;2.75;;;7.30;99.90;;;;;;5065305;28;20032;-49
2021/10/25 02:25:27;;;;;;;5.55;2.85;;;7.30;99.90;;;;;;5068307;28;20041;-53
2021/10/25 02:28:32;;;;;;;5.60;2.47;;;7.10;99.90;;;;;;5067425;28;20483;-51
2021/10/25 02:31:37;;;;;;;4.35;2.58;;;7.20;99.90;;;;;;5066158;28;20029;-49
2021/10/25 02:34:42;;;;;;;4.10;2.10;;;7.30;99.90;;;;;;5067443;28;20044;-49
2021/10/25 02:37:46;;;;;;;4.70;2.58;;;7.30;99.90;;;;;;5066194;28;20506;-51
2021/10/25 02:40:50;;;;;;;4.15;2.60;;;7.30;99.90;;;;;;5068102;28;20045;-50
2021/10/25 02:43:54;;;;;;;4.22;2.20;;;7.50;99.90;;;;;;5068698;28;20499;-51
2021/10/25 02:46:59;;;;;;;3.63;2.00;;;7.50;99.90;;;;;;5093527;22;20053;-64
2021/10/25 02:50:04;;;;;;;9.27;2.70;;;7.60;99.90;;;;;;5069776;28;20036;-64
2021/10/25 02:53:11;;;;;;;4.10;2.05;;;7.60;99.90;;;;;;5067514;28;20032;-65
2021/10/25 02:56:16;;;;;;;5.05;2.17;;;7.50;99.90;;;;;;5069830;28;20359;-63
2021/10/25 02:59:21;;;;;;;4.25;2.38;;;7.30;99.90;;;;;;5068378;28;20032;-64
2021/10/25 03:02:25;;;;;;;5.88;2.40;;;7.20;99.90;;;;;;5069445;28;20032;-64
2021/10/25 03:05:29;;;;;;;6.68;3.13;;;7.10;99.90;;;;;;5064200;28;20036;-64
2021/10/25 03:08:33;;;;;;;3.90;3.20;;;7.00;99.90;;;;;;5064726;28;20044;-63
2021/10/25 03:11:37;;;;;;;7.85;3.15;;;7.00;99.90;;;;;;5066260;28;20028;-64
2021/10/25 03:14:43;;;;;;;7.45;2.97;;;7.00;99.90;;;;;;5067370;28;20372;-65
2021/10/25 03:17:48;;;;;;;9.15;3.85;;;7.00;99.90;;;;;;5061284;28;20044;-64
2021/10/25 03:21:00;;;;;;;8.52;4.78;;;7.00;99.90;;;;;;5069418;28;20041;-64
2021/10/25 03:24:04;;;;;;;7.45;3.80;;;7.10;99.90;;;;;;5068878;28;20036;-64
2021/10/25 03:27:10;;;;;;;3.60;2.80;;;7.30;99.90;;;;;;5061640;28;20037;-64
2021/10/25 03:30:14;;;;;;;3.78;2.30;;;7.30;99.90;;;;;;5077591;28;20021;-64
2021/10/25 03:33:22;;;;;;;3.72;2.00;;;7.40;99.90;;;;;;5065843;28;20033;-64
2021/10/25 03:36:35;;;;;;;5.20;3.42;;;7.40;99.90;;;;;;5064552;28;20025;-65
2021/10/25 03:39:41;;;;;;;7.50;3.10;;;7.30;99.90;;;;;;5065310;28;20367;-64
2021/10/25 03:42:51;;;;;;;4.13;2.70;;;7.20;99.90;;;;;;5066631;28;20032;-65
2021/10/25 03:46:08;;;;;;;4.30;3.00;;;7.00;99.90;;;;;;5067170;28;20032;-65
2021/10/25 03:56:50;;;;;;;4.43;2.10;;;7.00;99.90;;;;;;5057231;28;20032;-64
2021/10/25 04:30:22;;;;;;;7.47;3.10;;;6.60;99.90;;;;;;5061560;28;20040;-64
2021/10/25 04:33:27;;;;;;;8.20;3.33;;;6.60;99.90;;;;;;5063994;28;20662;-64
2021/10/25 04:36:43;;;;;;;4.85;2.80;;;6.60;99.90;;;;;;5066497;28;20040;-64
2021/10/25 04:40:14;;;;;;;8.68;2.90;;;6.70;99.90;;;;;;5067041;28;20033;-64
2021/10/25 04:43:19;;;;;;;3.83;2.50;;;6.70;99.90;;;;;;5063714;28;20471;-65
2021/10/25 04:46:23;;;;;;;8.50;3.00;;;6.70;99.90;;;;;;5063700;28;20032;-64
2021/10/25 04:49:27;;;;;;;6.38;2.60;;;6.80;99.90;;;;;;5067485;28;20066;-65
2021/10/25 04:53:01;;;;;;;7.93;3.20;;;6.70;99.90;;;;;;5058844;28;20036;-64
2021/10/25 04:56:07;;;;;;;13.27;4.55;;;6.80;99.90;;;;;;5072849;28;20044;-64
2021/10/25 04:59:11;;;;;;;8.45;2.97;;;6.80;99.90;;;;;;5069107;28;20059;-64
2021/10/25 05:02:15;;;;;;;6.72;3.22;;;6.80;99.90;;;;;;5067593;28;20032;-64
2021/10/25 05:05:21;;;;;;;9.27;3.42;;;6.70;99.90;;;;;;5065913;28;20363;-64
2021/10/25 05:08:28;;;;;;;7.13;2.97;;;6.70;99.90;;;;;;5071904;28;20037;-64
2021/10/25 05:11:32;;;;;;;5.90;3.08;;;6.70;99.90;;;;;;5063200;28;20041;-65
2021/10/25 05:14:37;;;;;;;3.83;2.20;;;6.90;99.90;;;;;;5069208;28;20052;-64
2021/10/25 05:17:41;;;;;;;5.45;2.50;;;7.00;99.90;;;;;;5068977;28;20036;-64
2021/10/25 05:20:46;;;;;;;6.53;2.22;;;7.10;99.90;;;;;;5066362;28;20374;-64
2021/10/25 05:23:51;;;;;;;3.85;2.20;;;7.10;99.90;;;;;;5069570;28;20033;-65
2021/10/25 05:26:55;;;;;;;3.67;2.15;;;7.00;99.90;;;;;;5071306;28;20040;-64
2021/10/25 05:30:02;;;;;;;7.47;2.47;;;6.90;99.90;;;;;;5071478;28;20044;-64
2021/10/25 05:33:07;;;;;;;8.60;2.97;;;6.80;99.90;;;;;;5071578;28;20037;-65
2021/10/25 05:36:12;;;;;;;10.20;3.30;;;6.60;99.90;;;;;;5070957;28;20045;-63
2021/10/25 05:39:16;;;;;;;5.88;2.63;;;6.60;99.90;;;;;;5071233;28;20402;-64
2021/10/25 05:42:20;;;;;;;6.60;3.13;;;6.50;99.90;;;;;;5070062;28;20195;-63
2021/10/25 05:45:24;;;;;;;4.85;2.63;;;6.40;99.90;;;;;;5065914;28;20482;-63
2021/10/25 05:48:28;;;;;;;10.48;3.92;;;6.40;99.90;;;;;;5066471;28;20367;-63
2021/10/25 05:51:32;;;;;;;12.85;3.30;;;6.40;99.90;;;;;;5069716;28;20036;-64
2021/10/25 05:54:39;;;;;;;8.15;3.08;;;6.40;99.90;;;;;;5056323;28;20047;-64
2021/10/25 05:57:52;;;;;;;7.93;3.20;;;6.50;99.90;;;;;;5069395;28;20064;-65
2021/10/25 06:00:59;;;;;;;9.25;2.90;;;6.50;99.90;;;;;;5068572;28;20044;-64
2021/10/25 06:04:32;;;;;;;6.85;2.20;;;6.60;99.90;;;;;;5066177;28;20368;-64
2021/10/25 06:08:00;;;;;;;6.15;2.80;;;6.80;99.90;;;;;;5067881;28;20040;-64
2021/10/25 06:11:05;;;;;;;11.15;4.50;;;6.90;99.90;;;;;;5069151;28;20032;-64
2021/10/25 06:14:12;;;;;;;13.25;6.15;;;7.10;99.90;;;;;;5066063;28;20047;-64
2021/10/25 06:20:28;;;;;;;43.20;25.52;;;7.70;99.90;;;;;;5066889;28;20383;-65
2021/10/25 06:23:33;;;;;;;43.97;25.02;;;8.10;99.90;;;;;;5066924;28;20043;-64
2021/10/25 06:26:44;;;;;;;17.30;7.82;;;8.50;99.90;;;;;;5068722;28;20395;-64
2021/10/25 06:29:50;;;;;;;15.57;8.02;;;9.10;99.90;;;;;;5065455;28;20044;-63
2021/10/25 06:32:55;;;;;;;12.25;7.18;;;10.10;99.90;;;;;;5064969;28;20039;-64
2021/10/25 06:36:25;;;;;;;16.23;8.43;;;10.80;99.90;;;;;;5067049;28;20396;-64
2021/10/25 06:39:43;;;;;;;18.63;8.48;;;11.40;99.90;;;;;;5065117;28;20386;-65
2021/10/25 06:42:50;;;;;;;18.20;10.20;;;11.90;99.90;;;;;;5068371;28;20119;-65
2021/10/25 06:45:57;;;;;;;8.10;4.47;;;12.40;99.90;;;;;;5064358;28;20031;-64
2021/10/25 06:49:01;;;;;;;9.02;4.20;;;12.10;99.90;;;;;;5067602;28;20040;-64
2021/10/25 06:52:07;;;;;;;14.60;9.10;;;12.30;99.90;;;;;;5067982;28;20039;-64
2021/10/25 06:55:11;;;;;;;11.18;6.63;;;12.60;99.90;;;;;;5065868;28;20043;-64
2021/10/25 06:58:20;;;;;;;14.63;7.68;;;12.60;99.90;;;;;;5063508;28;20051;-64
2021/10/25 07:01:25;;;;;;;12.65;6.28;;;12.80;99.90;;;;;;5067741;28;20391;-64
2021/10/25 07:04:30;;;;;;;8.07;3.55;;;12.30;99.90;;;;;;5069382;28;20043;-64
2021/10/25 07:07:35;;;;;;;6.47;2.60;;;12.40;99.90;;;;;;5069079;28;20040;-64
2021/10/25 07:10:39;;;;;;;7.22;2.88;;;12.90;99.90;;;;;;5068848;28;20044;-65
2021/10/25 07:13:48;;;;;;;5.30;2.72;;;13.00;99.90;;;;;;5063610;28;20053;-63
2021/10/25 08:11:22;;;;;;;4.55;2.83;;;19.30;95.40;;;;;;5067570;28;20032;-65
2021/10/25 08:14:36;;;;;;;4.65;2.40;;;19.00;95.30;;;;;;5062735;28;20496;-65
2021/10/25 08:17:49;;;;;;;5.88;2.45;;;19.00;94.80;;;;;;5067050;28;20507;-64
2021/10/25 08:20:53;;;;;;;10.18;5.47;;;19.10;94.60;;;;;;5068110;28;20039;-65
2021/10/25 08:23:59;;;;;;;3.95;2.50;;;18.40;95.20;;;;;;5068443;28;20036;-65
2021/10/25 08:27:22;;;;;;;3.58;2.00;;;18.70;95.00;;;;;;5059208;28;20029;-65
2021/10/25 08:30:26;;;;;;;5.00;1.98;;;19.60;93.30;;;;;;5058991;28;20036;-65
2021/10/25 08:40:24;;;;;;;4.07;1.70;;;19.70;93.40;;;;;;5006484;28;20041;-65
2021/10/25 08:43:28;;;;;;;2.70;1.70;;;19.50;92.80;;;;;;5067029;28;20032;-65
2021/10/25 08:46:33;;;;;;;6.80;1.60;;;19.30;93.30;;;;;;5067502;28;20037;-64
2021/10/25 08:49:37;;;;;;;3.15;1.63;;;19.60;93.10;;;;;;5060034;28;20043;-65
2021/10/25 08:52:42;;;;;;;5.18;2.03;;;20.40;92.30;;;;;;5063848;28;20398;-65
2021/10/25 08:55:47;;;;;;;7.15;3.25;;;21.60;91.20;;;;;;5059111;28;20041;-64
2021/10/25 08:58:53;;;;;;;9.90;3.50;;;22.30;91.80;;;;;;5063270;28;20037;-64
2021/10/25 09:02:08;;;;;;;6.40;3.55;;;22.20;91.70;;;;;;5058693;28;20048;-64
2021/10/25 09:05:36;;;;;;;7.68;3.67;;;23.30;90.70;;;;;;5064341;28;20040;-64
2021/10/25 09:08:41;;;;;;;4.97;3.33;;;25.20;88.00;;;;;;5062193;28;20039;-64
2021/10/25 09:12:21;;;;;;;9.05;3.05;;;24.30;85.20;;;;;;5057116;28;20387;-64
2021/10/25 09:15:38;;;;;;;6.80;2.95;;;23.80;88.40;;;;;;5034959;28;20037;-65
2021/10/25 09:19:01;;;;;;;6.18;3.17;;;23.80;86.60;;;;;;5063810;28;20047;-64
2021/10/25 09:22:11;;;;;;;8.27;3.92;;;24.10;87.50;;;;;;5063272;28;20076;-65
2021/10/25 09:25:15;;;;;;;9.23;3.50;;;22.60;89.50;;;;;;5053508;28;20386;-64
2021/10/25 09:28:26;;;;;;;11.80;4.22;;;23.30;89.60;;;;;;5066783;28;20043;-64
2021/10/25 09:31:32;;;;;;;9.70;4.35;;;24.10;86.30;;;;;;5052756;28;20490;-64
2021/10/25 09:34:46;;;;;;;7.45;3.80;;;20.60;90.20;;;;;;5050054;28;20051;-65
2021/10/25 09:38:24;;;;;;;8.07;3.28;;;18.10;94.30;;;;;;5062642;28;20044;-64
2021/10/25 09:51:39;;;;;;;8.20;3.17;;;27.70;79.10;;;;;;5053839;28;20044;-65
2021/10/25 09:54:59;;;;;;;4.97;2.80;;;25.70;76.60;;;;;;5052789;28;20043;-64
2021/10/25 09:58:09;;;;;;;4.88;2.58;;;26.30;77.00;;;;;;5067860;28;20044;-65
2021/10/25 10:01:24;;;;;;;3.97;2.53;;;26.30;77.60;;;;;;5062469;28;20036;-65
2021/10/25 10:04:30;;;;;;;4.95;2.83;;;27.20;74.40;;;;;;5052060;28;20065;-64
2021/10/25 10:07:52;;;;;;;5.47;2.38;;;24.60;76.80;;;;;;5056283;28;20054;-65
2021/10/25 10:11:06;;;;;;;7.00;2.85;;;24.30;74.90;;;;;;5061514;28;20044;-65
2021/10/25 10:14:12;;;;;;;5.03;2.70;;;24.00;77.30;;;;;;5062281;28;20049;-65
2021/10/25 10:17:46;;;;;;;3.63;2.50;;;23.40;78.80;;;;;;5065997;28;20043;-64
2021/10/25 10:20:56;;;;;;;3.85;2.50;;;25.10;72.70;;;;;;5068348;28;20044;-64
2021/10/25 10:24:05;;;;;;;4.30;2.05;;;25.80;73.60;;;;;;5060094;28;20398;-64
2021/10/25 10:27:13;;;;;;;8.10;2.55;;;25.90;72.80;;;;;;5070824;28;20032;-64
2021/10/25 10:30:19;;;;;;;7.18;3.17;;;28.40;71.50;;;;;;5061880;28;20039;-64
2021/10/25 10:33:54;;;;;;;5.78;3.00;;;27.60;72.10;;;;;;5062831;28;20025;-64
2021/10/25 10:37:00;;;;;;;3.83;2.65;;;27.40;70.60;;;;;;5070938;28;20044;-65
2021/10/25 10:40:18;;;;;;;4.63;2.17;;;26.80;71.90;;;;;;5070872;28;20040;-64
2021/10/25 10:43:41;;;;;;;5.75;2.03;;;28.10;70.10;;;;;;5058801;28;20040;-64
2021/10/25 10:47:07;;;;;;;4.03;2.30;;;24.50;71.00;;;;;;5068456;28;20498;-64
2021/10/25 10:50:40;;;;;;;6.35;1.92;;;23.10;72.40;;;;;;5060899;28;20047;-65
2021/10/25 10:53:55;;;;;;;5.93;1.77;;;24.20;72.60;;;;;;5067250;28;20053;-64
2021/10/25 10:57:08;;;;;;;3.70;1.45;;;26.30;67.90;;;;;;5068209;28;20489;-64
2021/10/25 11:00:20;;;;;;;3.47;2.00;;;28.40;64.70;;;;;;5061951;28;20371;-65
2021/10/25 11:03:27;;;;;;;2.03;1.45;;;29.70;63.60;;;;;;5069133;28;20043;-64
2021/10/25 11:06:37;;;;;;;4.53;1.10;;;29.90;62.10;;;;;;5059502;28;20435;-65
2021/10/25 11:09:41;;;;;;;1.55;1.02;;;29.70;61.60;;;;;;5065531;28;20031;-65
2021/10/25 11:12:46;;;;;;;2.00;1.00;;;31.90;58.50;;;;;;5062706;28;20399;-66
2021/10/25 11:16:07;;;;;;;6.38;1.33;;;33.20;57.10;;;;;;5061638;28;20291;-62
2021/10/25 11:19:12;;;;;;;;;;;32.50;57.40;;;;;;5062907;28;20444;-65
2021/10/25 11:22:35;;;;;;;2.65;1.30;;;32.60;57.20;;;;;;5069843;28;19935;-65
2021/10/25 11:25:44;;;;;;;3.30;1.20;;;32.70;57.00;;;;;;5069250;28;20048;-65
2021/10/25 11:29:03;;;;;;;2.60;1.40;;;32.10;56.20;;;;;;5070732;28;20187;-65
2021/10/25 11:32:12;;;;;;;2.25;1.10;;;30.20;57.70;;;;;;5060454;28;20048;-65
2021/10/25 11:35:18;;;;;;;3.17;1.15;;;31.30;59.40;;;;;;5061236;28;20036;-64
2021/10/25 11:38:23;;;;;;;2.45;1.10;;;30.30;59.00;;;;;;5070510;28;20371;-64
2021/10/25 11:41:27;;;;;;;3.20;1.60;;;32.80;58.20;;;;;;5060496;28;20047;-63
2021/10/25 11:44:33;;;;;;;3.15;1.30;;;35.20;56.70;;;;;;5068344;28;20046;-63
2021/10/25 11:47:48;;;;;;;4.25;1.63;;;35.30;54.60;;;;;;5059804;28;20045;-64
2021/10/25 11:50:57;;;;;;;3.55;1.50;;;31.60;56.00;;;;;;5058411;28;20044;-63
2021/10/25 11:54:02;;;;;;;3.65;1.40;;;31.50;58.20;;;;;;5069194;28;20029;-63
2021/10/25 11:57:07;;;;;;;4.63;1.50;;;32.00;57.30;;;;;;5057724;28;20055;-62
2021/10/25 12:00:14;;;;;;;4.38;1.40;;;29.20;58.90;;;;;;5062950;28;20044;-63
2021/10/25 12:03:24;;;;;;;4.18;1.50;;;28.20;60.10;;;;;;5058730;28;20482;-63
2021/10/25 12:06:31;;;;;;;3.40;1.60;;;30.00;59.30;;;;;;5060341;28;20044;-63
2021/10/25 12:09:35;;;;;;;3.10;1.63;;;29.90;59.90;;;;;;5066409;28;20039;-63
2021/10/25 12:12:39;;;;;;;2.53;1.40;;;31.80;59.00;;;;;;5061439;28;20048;-63
2021/10/25 12:15:59;;;;;;;2.42;1.20;;;32.60;57.80;;;;;;5069848;28;20028;-64
2021/10/25 12:19:06;;;;;;;3.70;1.45;;;33.40;57.80;;;;;;5066958;28;20044;-64
2021/10/25 12:22:15;;;;;;;4.45;1.42;;;32.80;57.90;;;;;;5060392;28;20052;-63
2021/10/25 12:25:20;;;;;;;4.80;1.40;;;32.60;57.70;;;;;;5065016;28;20055;-63
2021/10/25 12:28:24;;;;;;;2.47;1.65;;;33.30;57.60;;;;;;5057730;28;20063;-63
2021/10/25 12:31:29;;;;;;;3.25;1.60;;;28.90;58.50;;;;;;5070092;28;20052;-63
2021/10/25 12:34:45;;;;;;;2.90;1.42;;;29.80;59.60;;;;;;5070562;28;20284;-63
2021/10/25 12:37:59;;;;;;;3.75;1.60;;;29.90;59.60;;;;;;5070146;28;20044;-63
2021/10/25 12:41:03;;;;;;;6.65;1.73;;;29.40;59.10;;;;;;5068657;28;20508;-63
2021/10/25 12:44:08;;;;;;;2.65;1.60;;;31.20;59.30;;;;;;5059075;28;20529;-63
2021/10/25 12:47:14;;;;;;;4.47;1.65;;;31.20;58.60;;;;;;5050536;28;20052;-64
2021/10/25 12:50:19;;;;;;;4.60;1.80;;;31.50;57.90;;;;;;5056719;28;20047;-64
2021/10/25 12:53:27;;;;;;;3.50;1.60;;;30.20;57.90;;;;;;5069051;28;20048;-64
2021/10/25 12:56:31;;;;;;;3.47;1.48;;;30.00;59.10;;;;;;5066174;28;20043;-63
2021/10/25 12:59:35;;;;;;;5.55;1.80;;;29.40;60.30;;;;;;5058162;28;20051;-63
2021/10/25 13:02:45;;;;;;;2.28;1.30;;;29.40;59.30;;;;;;5061324;28;20040;-63
2021/10/25 13:05:54;;;;;;;2.83;1.33;;;28.80;60.00;;;;;;5062569;28;20052;-64
2021/10/25 13:09:10;;;;;;;3.75;1.10;;;28.50;62.00;;;;;;5069727;28;20052;-64
2021/10/25 13:12:15;;;;;;;2.22;1.30;;;28.60;62.00;;;;;;5071522;28;20035;-64
2021/10/25 13:15:20;;;;;;;3.42;1.60;;;29.00;61.50;;;;;;5072886;28;20040;-63
2021/10/25 13:18:24;;;;;;;3.53;1.65;;;29.10;61.10;;;;;;5064302;28;20031;-64
2021/10/25 13:21:28;;;;;;;2.75;1.30;;;29.60;61.90;;;;;;5070147;28;20051;-64
2021/10/25 13:24:32;;;;;;;1.95;1.27;;;30.10;61.00;;;;;;5053283;28;20044;-64
2021/10/25 13:27:37;;;;;;;2.90;1.50;;;30.90;59.30;;;;;;5063132;28;20406;-64
2021/10/25 13:30:41;;;;;;;2.30;1.08;;;30.80;59.20;;;;;;5060630;28;20489;-63
2021/10/25 13:33:46;;;;;;;6.30;1.67;;;29.20;58.80;;;;;;5064698;28;20040;-64
2021/10/25 13:36:51;;;;;;;2.33;1.35;;;29.00;59.60;;;;;;5054963;28;20048;-63
2021/10/25 13:39:55;;;;;;;3.10;1.50;;;28.70;60.90;;;;;;5053700;28;20120;-63
2021/10/25 13:43:04;;;;;;;7.45;2.38;;;28.10;60.30;;;;;;5053467;28;20056;-63
2021/10/25 13:46:08;;;;;;;3.38;1.50;;;27.30;62.00;;;;;;5053655;28;20044;-64
2021/10/25 13:49:12;;;;;;;3.72;1.77;;;26.40;64.80;;;;;;5072472;28;20070;-63
2021/10/25 13:52:16;;;;;;;5.10;2.00;;;25.50;67.90;;;;;;5070646;28;20497;-64
2021/10/25 13:55:20;;;;;;;5.43;1.70;;;24.90;69.10;;;;;;5053457;28;20052;-64
2021/10/25 13:58:25;;;;;;;6.63;2.22;;;24.80;69.90;;;;;;5053083;28;20040;-65
2021/10/25 14:01:29;;;;;;;4.72;2.03;;;23.70;70.60;;;;;;5072933;28;20509;-64
2021/10/25 14:04:39;;;;;;;3.28;1.80;;;23.60;72.40;;;;;;5072919;28;20052;-64
2021/10/25 14:07:43;;;;;;;7.28;1.90;;;22.40;74.90;;;;;;5060222;28;20035;-64
2021/10/25 14:10:50;;;;;;;4.93;1.77;;;22.50;74.90;;;;;;5072976;28;20047;-65
2021/10/25 14:17:01;;;;;;;6.22;1.70;;;22.40;76.00;;;;;;5072328;28;20035;-64
2021/10/25 14:20:06;;;;;;;3.50;1.98;;;22.30;77.00;;;;;;5071879;28;20055;-64
2021/10/25 14:23:11;;;;;;;3.05;1.50;;;22.30;77.00;;;;;;5058008;28;20040;-64
2021/10/25 14:26:15;;;;;;;4.85;1.65;;;22.10;77.10;;;;;;5052284;28;20055;-65
2021/10/25 14:29:19;;;;;;;4.28;1.98;;;22.10;77.80;;;;;;5052083;28;20135;-63
2021/10/25 14:32:23;;;;;;;4.30;1.80;;;22.00;78.50;;;;;;5051869;28;20051;-64
2021/10/25 14:35:28;;;;;;;9.35;1.90;;;21.70;79.30;;;;;;5052069;28;20056;-65
2021/10/25 14:44:43;;;;;;;5.47;2.40;;;21.10;81.20;;;;;;5120078;27;20128;-47
2021/10/25 14:48:12;;;;;;;3.47;1.83;;;20.90;82.50;;;;;;5108168;28;20390;-49
2021/10/25 14:57:48;;;;;;;5.88;1.90;;;20.20;85.00;;;;;;5128086;28;20638;-48
2021/10/25 15:00:53;;;;;;;5.05;2.35;;;19.90;86.50;;;;;;5128350;28;20039;-50
2021/10/25 15:03:57;;;;;;;4.65;2.10;;;19.80;87.30;;;;;;5128132;28;20035;-47
2021/10/25 15:07:01;;;;;;;8.18;2.20;;;19.60;88.40;;;;;;5126677;28;20031;-47
2021/10/25 15:10:06;;;;;;;6.63;2.33;;;19.50;89.10;;;;;;5112256;28;20051;-46
2021/10/25 15:13:10;;;;;;;5.53;2.53;;;19.30;89.40;;;;;;5119632;28;20032;-47
2021/10/25 15:16:14;;;;;;;6.68;2.40;;;19.20;90.00;;;;;;5127625;28;20043;-50
2021/10/25 15:19:18;;;;;;;6.78;2.60;;;19.10;90.50;;;;;;5127773;28;20031;-47
2021/10/25 15:22:23;;;;;;;5.75;2.28;;;18.90;90.80;;;;;;5127302;28;20032;-47
2021/10/25 15:25:32;;;;;;;6.65;2.60;;;18.80;91.00;;;;;;5127645;28;20484;-47
2021/10/25 15:28:37;;;;;;;4.38;2.10;;;18.70;91.10;;;;;;5126759;28;20035;-47
2021/10/25 15:31:41;;;;;;;6.18;2.30;;;18.60;91.70;;;;;;5127656;28;20035;-46
2021/10/25 15:34:47;;;;;;;5.55;2.40;;;18.40;91.90;;;;;;5127695;28;20485;-47
2021/10/25 15:37:52;;;;;;;8.57;2.60;;;18.10;92.50;;;;;;5127527;28;20055;-48
2021/10/25 15:40:56;;;;;;;8.43;2.58;;;17.90;93.00;;;;;;5127464;28;20036;-48
2021/10/25 15:44:00;;;;;;;4.72;2.58;;;17.80;93.20;;;;;;5127048;28;20043;-49
2021/10/25 15:47:05;;;;;;;7.85;2.58;;;17.60;94.00;;;;;;5127173;28;20035;-48
2021/10/25 15:50:09;;;;;;;6.32;2.65;;;17.40;94.80;;;;;;5126930;28;20375;-48
2021/10/25 15:53:13;;;;;;;9.52;2.42;;;17.10;94.90;;;;;;5127353;28;20482;-47
2021/10/25 15:56:17;;;;;;;9.18;2.85;;;16.90;95.20;;;;;;5112647;28;20035;-48
2021/10/25 15:59:21;;;;;;;10.43;3.15;;;16.70;95.70;;;;;;5113524;28;20032;-47
2021/10/25 16:02:26;;;;;;;6.05;2.92;;;16.60;96.00;;;;;;5113551;28;20046;-48
2021/10/25 16:05:31;;;;;;;6.35;2.75;;;16.40;96.70;;;;;;5113451;28;20490;-47
2021/10/25 16:08:36;;;;;;;5.93;2.65;;;16.20;97.30;;;;;;5113225;28;20040;-46
2021/10/25 16:11:40;;;;;;;5.78;3.15;;;16.10;97.60;;;;;;5113502;28;20032;-47
2021/10/25 16:14:45;;;;;;;5.22;2.50;;;16.00;98.40;;;;;;5113231;28;20040;-49
2021/10/25 16:17:50;;;;;;;10.57;3.08;;;15.80;99.00;;;;;;5112889;28;20379;-47
2021/10/25 16:20:54;;;;;;;7.82;2.95;;;15.70;99.70;;;;;;5113084;28;20405;-49
2021/10/25 16:23:58;;;;;;;4.28;2.35;;;15.50;99.90;;;;;;5112807;28;20449;-50
2021/10/25 16:27:03;;;;;;;6.45;3.00;;;15.30;99.90;;;;;;5112806;28;20028;-48
2021/10/25 16:30:15;;;;;;;6.32;3.50;;;15.20;99.90;;;;;;5112654;28;20373;-47
2021/10/25 16:33:19;;;;;;;6.22;3.15;;;15.20;99.90;;;;;;5112972;28;20501;-46
2021/10/25 16:36:24;;;;;;;10.25;3.55;;;15.00;99.90;;;;;;5112844;28;20039;-48
2021/10/25 16:39:28;;;;;;;7.68;3.65;;;15.00;99.90;;;;;;5112732;28;20064;-46
2021/10/25 16:42:32;;;;;;;6.68;3.25;;;14.90;99.90;;;;;;5112592;28;20035;-47
2021/10/25 16:45:38;;;;;;;7.03;3.38;;;14.80;99.90;;;;;;5093824;22;20038;-54
2021/10/25 16:48:43;;;;;;;10.07;4.82;;;14.70;99.90;;;;;;5030240;28;20029;-51
2021/10/25 17:05:11;;;;;;;;;;;14.70;99.90;;;;;;5031358;28;20045;-52
2021/10/25 17:11:38;;;;;;;8.25;4.13;;;14.30;99.90;;;;;;5031075;28;20488;-50
2021/10/25 17:14:42;;;;;;;6.88;3.70;;;14.30;99.90;;;;;;5030958;28;20306;-51
2021/10/25 17:17:47;;;;;;;9.40;3.83;;;14.20;99.90;;;;;;5029758;28;20037;-53
2021/10/25 17:20:52;;;;;;;9.45;4.18;;;14.20;99.90;;;;;;5030852;28;20392;-49
2021/10/25 17:23:56;;;;;;;7.97;3.97;;;14.20;99.90;;;;;;5030616;28;20492;-51
2021/10/25 17:27:01;;;;;;;7.65;3.60;;;14.20;99.90;;;;;;5030938;28;20037;-53
2021/10/25 17:30:05;;;;;;;10.30;3.95;;;14.10;99.90;;;;;;5030832;28;20030;-54
2021/10/25 17:33:10;;;;;;;7.80;4.05;;;14.00;99.90;;;;;;5030603;28;20063;-53
2021/10/25 17:36:14;;;;;;;5.65;3.72;;;13.90;99.90;;;;;;5030737;28;20037;-49
2021/10/25 17:39:18;;;;;;;9.90;4.45;;;13.90;99.90;;;;;;5030431;28;20045;-50
2021/10/25 17:42:22;;;;;;;10.55;4.80;;;13.80;99.90;;;;;;5030627;28;20056;-53
2021/10/25 17:45:27;;;;;;;11.32;4.10;;;13.80;99.90;;;;;;5030095;28;20048;-49
2021/10/25 17:48:31;;;;;;;8.77;4.15;;;13.80;99.90;;;;;;5029972;28;20064;-51
2021/10/25 17:51:41;;;;;;;8.68;3.80;;;13.80;99.90;;;;;;5030604;28;20033;-49
2021/10/25 17:54:44;;;;;;;17.25;6.55;;;13.70;99.90;;;;;;5030110;28;20050;-49
2021/10/25 17:57:49;;;;;;;17.30;9.10;;;13.60;99.90;;;;;;5029862;28;20052;-53
2021/10/25 18:00:56;;;;;;;17.92;9.63;;;13.60;99.90;;;;;;5030220;28;20052;-50
2021/10/25 18:04:00;;;;;;;35.55;21.73;;;13.50;99.90;;;;;;5028952;28;20419;-53
2021/10/25 18:07:04;;;;;;;24.42;12.07;;;13.60;99.90;;;;;;5029888;28;20074;-55
2021/10/25 18:10:10;;;;;;;16.88;9.10;;;13.60;99.90;;;;;;5029623;28;20064;-55
2021/10/25 18:13:19;;;;;;;13.13;7.82;;;13.60;99.90;;;;;;5029593;28;20044;-49
2021/10/25 18:16:23;;;;;;;16.02;7.40;;;13.70;99.90;;;;;;5029796;28;20047;-50
2021/10/25 18:19:27;;;;;;;14.93;8.40;;;13.70;99.90;;;;;;5029563;28;20244;-51
2021/10/25 18:22:32;;;;;;;16.98;9.23;;;13.70;99.90;;;;;;5029833;28;20048;-51
2021/10/25 18:25:37;;;;;;;17.58;9.48;;;13.70;99.90;;;;;;5029805;28;20048;-53
2021/10/25 18:28:41;;;;;;;13.25;8.68;;;13.60;99.90;;;;;;5028151;28;20514;-51
2021/10/25 18:31:45;;;;;;;13.70;8.10;;;13.50;99.90;;;;;;5029832;28;20053;-50
2021/10/25 18:34:50;;;;;;;17.45;9.85;;;13.40;99.90;;;;;;5029295;28;20048;-51
2021/10/25 18:37:55;;;;;;;22.83;10.57;;;13.40;99.90;;;;;;5029230;28;20045;-52
2021/10/25 18:40:59;;;;;;;18.52;10.73;;;13.40;99.90;;;;;;5029073;28;20044;-54